sensor_id;sensor_type;location;lat;lon;timestamp;P1;durP1;ratioP1;P2;durP2;ratioP2
24337;SDS011;12457;50.832;4.346;2023-06-10T00:00:40;8.50;;;5.80;;
24337;SDS011;12457;50.832;4.346;2023-06-10T00:03:06;10.18;;;5.82;;
24337;SDS011;12457;50.832;4.346;2023-06-10T00:05:33;9.25;;;6.10;;
24337;SDS011;12457;50.832;4.346;2023-06-10T00:08:00;7.35;;;6.22;;
24337;SDS011;12457;50.832;4.346;2023-06-10T00:10:32;8.25;;;6.30;;
24337;SDS011;12457;50.832;4.346;2023-06-10T00:12:58;9.63;;;6.00;;
24337;SDS011;12457;50.832;4.346;2023-06-10T00:15:24;12.20;;;6.03;;
24337;SDS011;12457;50.832;4.346;2023-06-10T00:17:50;8.85;;;6.38;;
24337;SDS011;12457;50.832;4.346;2023-06-10T00:20:18;7.97;;;6.18;;
24337;SDS011;12457;50.832;4.346;2023-06-10T00:22:43;10.88;;;6.35;;
24337;SDS011;12457;50.832;4.346;2023-06-10T00:25:10;8.52;;;6.32;;
24337;SDS011;12457;50.832;4.346;2023-06-10T00:27:36;13.02;;;6.35;;
24337;SDS011;12457;50.832;4.346;2023-06-10T00:30:04;9.68;;;6.10;;
24337;SDS011;12457;50.832;4.346;2023-06-10T00:32:32;11.20;;;5.97;;
24337;SDS011;12457;50.832;4.346;2023-06-10T00:34:59;8.57;;;6.35;;
24337;SDS011;12457;50.832;4.346;2023-06-10T00:37:24;11.27;;;6.15;;
24337;SDS011;12457;50.832;4.346;2023-06-10T00:39:50;6.82;;;5.53;;
24337;SDS011;12457;50.832;4.346;2023-06-10T00:42:16;9.30;;;6.40;;
24337;SDS011;12457;50.832;4.346;2023-06-10T00:44:47;7.43;;;6.20;;
24337;SDS011;12457;50.832;4.346;2023-06-10T00:47:13;8.63;;;6.38;;
24337;SDS011;12457;50.832;4.346;2023-06-10T00:49:39;12.38;;;6.28;;
24337;SDS011;12457;50.832;4.346;2023-06-10T00:52:06;9.40;;;6.13;;
24337;SDS011;12457;50.832;4.346;2023-06-10T00:54:33;8.07;;;6.60;;
24337;SDS011;12457;50.832;4.346;2023-06-10T00:57:00;7.28;;;6.13;;
24337;SDS011;12457;50.832;4.346;2023-06-10T00:59:32;13.25;;;6.28;;
24337;SDS011;12457;50.832;4.346;2023-06-10T01:01:58;7.22;;;5.93;;
24337;SDS011;12457;50.832;4.346;2023-06-10T01:04:24;11.07;;;6.13;;
24337;SDS011;12457;50.832;4.346;2023-06-10T01:06:57;8.43;;;6.30;;
24337;SDS011;12457;50.832;4.346;2023-06-10T01:09:42;7.32;;;6.50;;
24337;SDS011;12457;50.832;4.346;2023-06-10T01:15:23;8.55;;;5.75;;
24337;SDS011;12457;50.832;4.346;2023-06-10T01:17:57;9.27;;;5.90;;
24337;SDS011;12457;50.832;4.346;2023-06-10T01:20:23;11.77;;;6.90;;
24337;SDS011;12457;50.832;4.346;2023-06-10T01:22:55;8.27;;;6.22;;
24337;SDS011;12457;50.832;4.346;2023-06-10T01:25:23;17.45;;;6.05;;
24337;SDS011;12457;50.832;4.346;2023-06-10T01:33:10;15.57;;;6.38;;
24337;SDS011;12457;50.832;4.346;2023-06-10T01:35:39;10.60;;;6.22;;
24337;SDS011;12457;50.832;4.346;2023-06-10T01:38:06;9.50;;;6.38;;
24337;SDS011;12457;50.832;4.346;2023-06-10T01:40:32;9.32;;;6.10;;
24337;SDS011;12457;50.832;4.346;2023-06-10T01:42:58;8.65;;;6.47;;
24337;SDS011;12457;50.832;4.346;2023-06-10T01:45:26;9.27;;;6.32;;
24337;SDS011;12457;50.832;4.346;2023-06-10T01:47:51;7.53;;;6.22;;
24337;SDS011;12457;50.832;4.346;2023-06-10T01:50:17;11.75;;;6.32;;
24337;SDS011;12457;50.832;4.346;2023-06-10T01:52:42;11.10;;;6.60;;
24337;SDS011;12457;50.832;4.346;2023-06-10T01:55:08;10.93;;;6.38;;
24337;SDS011;12457;50.832;4.346;2023-06-10T01:57:34;8.93;;;6.47;;
24337;SDS011;12457;50.832;4.346;2023-06-10T02:00:12;10.45;;;6.47;;
24337;SDS011;12457;50.832;4.346;2023-06-10T02:02:38;11.13;;;6.95;;
24337;SDS011;12457;50.832;4.346;2023-06-10T02:05:04;8.93;;;6.32;;
24337;SDS011;12457;50.832;4.346;2023-06-10T02:07:30;9.85;;;6.82;;
24337;SDS011;12457;50.832;4.346;2023-06-10T02:09:55;7.55;;;6.38;;
24337;SDS011;12457;50.832;4.346;2023-06-10T02:12:21;8.55;;;6.43;;
24337;SDS011;12457;50.832;4.346;2023-06-10T02:14:48;13.43;;;7.10;;
24337;SDS011;12457;50.832;4.346;2023-06-10T02:17:14;11.00;;;6.53;;
24337;SDS011;12457;50.832;4.346;2023-06-10T02:19:40;9.27;;;6.65;;
24337;SDS011;12457;50.832;4.346;2023-06-10T02:22:12;10.52;;;6.63;;
24337;SDS011;12457;50.832;4.346;2023-06-10T02:24:38;9.75;;;6.72;;
24337;SDS011;12457;50.832;4.346;2023-06-10T02:27:04;15.60;;;6.82;;
24337;SDS011;12457;50.832;4.346;2023-06-10T02:29:34;8.07;;;6.20;;
24337;SDS011;12457;50.832;4.346;2023-06-10T02:32:01;10.02;;;7.22;;
24337;SDS011;12457;50.832;4.346;2023-06-10T02:34:27;10.52;;;6.90;;
24337;SDS011;12457;50.832;4.346;2023-06-10T02:36:53;10.38;;;6.18;;
24337;SDS011;12457;50.832;4.346;2023-06-10T02:39:19;9.30;;;7.10;;
24337;SDS011;12457;50.832;4.346;2023-06-10T02:41:46;8.77;;;7.03;;
24337;SDS011;12457;50.832;4.346;2023-06-10T02:44:12;10.32;;;6.90;;
24337;SDS011;12457;50.832;4.346;2023-06-10T02:46:38;14.32;;;6.90;;
24337;SDS011;12457;50.832;4.346;2023-06-10T02:49:03;9.30;;;6.80;;
24337;SDS011;12457;50.832;4.346;2023-06-10T02:51:29;11.15;;;6.82;;
24337;SDS011;12457;50.832;4.346;2023-06-10T02:53:55;9.63;;;7.43;;
24337;SDS011;12457;50.832;4.346;2023-06-10T02:56:20;10.27;;;6.57;;
24337;SDS011;12457;50.832;4.346;2023-06-10T02:58:46;11.20;;;6.95;;
24337;SDS011;12457;50.832;4.346;2023-06-10T03:01:13;12.55;;;6.38;;
24337;SDS011;12457;50.832;4.346;2023-06-10T03:03:39;10.85;;;6.47;;
24337;SDS011;12457;50.832;4.346;2023-06-10T03:06:07;13.52;;;6.70;;
24337;SDS011;12457;50.832;4.346;2023-06-10T03:08:37;9.60;;;6.85;;
24337;SDS011;12457;50.832;4.346;2023-06-10T03:11:03;13.98;;;9.23;;
24337;SDS011;12457;50.832;4.346;2023-06-10T03:13:29;47.08;;;31.45;;
24337;SDS011;12457;50.832;4.346;2023-06-10T03:15:58;80.07;;;50.38;;
24337;SDS011;12457;50.832;4.346;2023-06-10T03:18:26;102.50;;;62.75;;
24337;SDS011;12457;50.832;4.346;2023-06-10T03:20:53;101.78;;;62.10;;
24337;SDS011;12457;50.832;4.346;2023-06-10T03:23:22;88.93;;;52.50;;
24337;SDS011;12457;50.832;4.346;2023-06-10T03:25:49;89.75;;;52.38;;
24337;SDS011;12457;50.832;4.346;2023-06-10T03:28:14;83.72;;;45.92;;
24337;SDS011;12457;50.832;4.346;2023-06-10T03:30:40;69.10;;;39.10;;
24337;SDS011;12457;50.832;4.346;2023-06-10T03:33:06;63.97;;;32.65;;
24337;SDS011;12457;50.832;4.346;2023-06-10T03:35:31;59.45;;;28.73;;
24337;SDS011;12457;50.832;4.346;2023-06-10T03:37:57;46.42;;;23.15;;
24337;SDS011;12457;50.832;4.346;2023-06-10T03:40:24;43.65;;;21.83;;
24337;SDS011;12457;50.832;4.346;2023-06-10T03:42:49;35.78;;;19.58;;
24337;SDS011;12457;50.832;4.346;2023-06-10T03:45:15;34.70;;;18.30;;
24337;SDS011;12457;50.832;4.346;2023-06-10T03:47:41;39.33;;;18.75;;
24337;SDS011;12457;50.832;4.346;2023-06-10T03:50:08;42.65;;;18.85;;
24337;SDS011;12457;50.832;4.346;2023-06-10T03:52:35;29.40;;;16.92;;
24337;SDS011;12457;50.832;4.346;2023-06-10T03:55:02;28.83;;;16.45;;
24337;SDS011;12457;50.832;4.346;2023-06-10T03:57:29;24.55;;;14.48;;
24337;SDS011;12457;50.832;4.346;2023-06-10T03:59:54;25.67;;;14.10;;
24337;SDS011;12457;50.832;4.346;2023-06-10T04:05:16;17.65;;;11.75;;
24337;SDS011;12457;50.832;4.346;2023-06-10T04:07:42;23.27;;;12.20;;
24337;SDS011;12457;50.832;4.346;2023-06-10T04:10:09;18.27;;;11.60;;
24337;SDS011;12457;50.832;4.346;2023-06-10T04:12:38;21.00;;;12.32;;
24337;SDS011;12457;50.832;4.346;2023-06-10T04:15:05;18.33;;;11.98;;
24337;SDS011;12457;50.832;4.346;2023-06-10T04:20:54;21.98;;;11.50;;
24337;SDS011;12457;50.832;4.346;2023-06-10T04:23:20;16.92;;;11.50;;
24337;SDS011;12457;50.832;4.346;2023-06-10T04:25:46;19.02;;;11.48;;
24337;SDS011;12457;50.832;4.346;2023-06-10T04:28:12;16.02;;;10.07;;
24337;SDS011;12457;50.832;4.346;2023-06-10T04:30:38;13.98;;;9.43;;
24337;SDS011;12457;50.832;4.346;2023-06-10T04:36:26;14.35;;;8.43;;
24337;SDS011;12457;50.832;4.346;2023-06-10T04:38:54;12.35;;;7.93;;
24337;SDS011;12457;50.832;4.346;2023-06-10T04:41:20;15.68;;;7.60;;
24337;SDS011;12457;50.832;4.346;2023-06-10T04:43:45;13.70;;;7.78;;
24337;SDS011;12457;50.832;4.346;2023-06-10T04:46:11;11.45;;;7.40;;
24337;SDS011;12457;50.832;4.346;2023-06-10T04:48:38;11.43;;;6.93;;
24337;SDS011;12457;50.832;4.346;2023-06-10T04:51:04;10.88;;;7.00;;
24337;SDS011;12457;50.832;4.346;2023-06-10T04:53:30;15.55;;;6.57;;
24337;SDS011;12457;50.832;4.346;2023-06-10T04:55:56;10.73;;;6.80;;
24337;SDS011;12457;50.832;4.346;2023-06-10T04:58:22;11.98;;;6.75;;
24337;SDS011;12457;50.832;4.346;2023-06-10T05:00:48;14.20;;;6.35;;
24337;SDS011;12457;50.832;4.346;2023-06-10T05:06:17;9.93;;;7.22;;
24337;SDS011;12457;50.832;4.346;2023-06-10T05:08:43;10.48;;;6.95;;
24337;SDS011;12457;50.832;4.346;2023-06-10T05:11:09;9.25;;;6.85;;
24337;SDS011;12457;50.832;4.346;2023-06-10T05:13:35;11.02;;;7.05;;
24337;SDS011;12457;50.832;4.346;2023-06-10T05:16:00;12.18;;;6.70;;
24337;SDS011;12457;50.832;4.346;2023-06-10T05:18:27;9.45;;;5.97;;
24337;SDS011;12457;50.832;4.346;2023-06-10T05:20:53;10.05;;;6.18;;
24337;SDS011;12457;50.832;4.346;2023-06-10T05:23:19;12.63;;;6.15;;
24337;SDS011;12457;50.832;4.346;2023-06-10T05:25:46;9.85;;;6.32;;
24337;SDS011;12457;50.832;4.346;2023-06-10T05:28:12;10.13;;;6.25;;
24337;SDS011;12457;50.832;4.346;2023-06-10T05:30:38;11.35;;;6.22;;
24337;SDS011;12457;50.832;4.346;2023-06-10T05:33:04;10.55;;;6.78;;
24337;SDS011;12457;50.832;4.346;2023-06-10T05:35:30;11.07;;;5.97;;
24337;SDS011;12457;50.832;4.346;2023-06-10T05:37:56;10.75;;;6.53;;
24337;SDS011;12457;50.832;4.346;2023-06-10T05:40:21;8.02;;;6.43;;
24337;SDS011;12457;50.832;4.346;2023-06-10T05:42:47;10.90;;;5.78;;
24337;SDS011;12457;50.832;4.346;2023-06-10T05:45:13;8.45;;;6.32;;
24337;SDS011;12457;50.832;4.346;2023-06-10T05:47:38;14.18;;;6.38;;
24337;SDS011;12457;50.832;4.346;2023-06-10T05:50:05;6.55;;;5.60;;
24337;SDS011;12457;50.832;4.346;2023-06-10T05:52:35;13.70;;;6.63;;
24337;SDS011;12457;50.832;4.346;2023-06-10T05:55:04;7.32;;;5.90;;
24337;SDS011;12457;50.832;4.346;2023-06-10T05:57:30;11.70;;;6.43;;
24337;SDS011;12457;50.832;4.346;2023-06-10T05:59:56;8.60;;;6.20;;
24337;SDS011;12457;50.832;4.346;2023-06-10T06:02:22;14.07;;;6.38;;
24337;SDS011;12457;50.832;4.346;2023-06-10T06:04:48;9.25;;;6.00;;
24337;SDS011;12457;50.832;4.346;2023-06-10T06:07:13;8.32;;;5.95;;
24337;SDS011;12457;50.832;4.346;2023-06-10T06:09:39;10.60;;;6.70;;
24337;SDS011;12457;50.832;4.346;2023-06-10T06:12:05;10.70;;;5.82;;
24337;SDS011;12457;50.832;4.346;2023-06-10T06:14:32;8.82;;;5.70;;
24337;SDS011;12457;50.832;4.346;2023-06-10T06:17:01;11.80;;;5.93;;
24337;SDS011;12457;50.832;4.346;2023-06-10T06:19:28;7.93;;;6.10;;
24337;SDS011;12457;50.832;4.346;2023-06-10T06:21:54;8.73;;;6.18;;
24337;SDS011;12457;50.832;4.346;2023-06-10T06:24:20;10.27;;;5.72;;
24337;SDS011;12457;50.832;4.346;2023-06-10T06:26:45;10.18;;;5.78;;
24337;SDS011;12457;50.832;4.346;2023-06-10T06:29:11;6.20;;;5.57;;
24337;SDS011;12457;50.832;4.346;2023-06-10T06:31:37;11.07;;;5.65;;
24337;SDS011;12457;50.832;4.346;2023-06-10T06:34:03;11.23;;;5.70;;
24337;SDS011;12457;50.832;4.346;2023-06-10T06:36:28;10.05;;;5.82;;
24337;SDS011;12457;50.832;4.346;2023-06-10T06:38:55;13.18;;;6.05;;
24337;SDS011;12457;50.832;4.346;2023-06-10T06:41:20;8.48;;;6.03;;
24337;SDS011;12457;50.832;4.346;2023-06-10T06:43:47;8.27;;;5.22;;
24337;SDS011;12457;50.832;4.346;2023-06-10T06:46:13;9.80;;;5.50;;
24337;SDS011;12457;50.832;4.346;2023-06-10T06:48:38;8.55;;;6.10;;
24337;SDS011;12457;50.832;4.346;2023-06-10T06:51:04;9.88;;;5.90;;
24337;SDS011;12457;50.832;4.346;2023-06-10T06:53:30;8.43;;;5.85;;
24337;SDS011;12457;50.832;4.346;2023-06-10T06:55:56;11.88;;;5.63;;
24337;SDS011;12457;50.832;4.346;2023-06-10T06:58:21;7.47;;;5.00;;
24337;SDS011;12457;50.832;4.346;2023-06-10T07:00:48;8.95;;;6.30;;
24337;SDS011;12457;50.832;4.346;2023-06-10T07:03:33;8.25;;;5.53;;
24337;SDS011;12457;50.832;4.346;2023-06-10T07:05:58;8.88;;;6.10;;
24337;SDS011;12457;50.832;4.346;2023-06-10T07:08:24;11.13;;;5.93;;
24337;SDS011;12457;50.832;4.346;2023-06-10T07:10:50;7.20;;;5.28;;
24337;SDS011;12457;50.832;4.346;2023-06-10T07:13:15;9.70;;;5.35;;
24337;SDS011;12457;50.832;4.346;2023-06-10T07:15:41;7.38;;;5.38;;
24337;SDS011;12457;50.832;4.346;2023-06-10T07:18:07;7.45;;;5.28;;
24337;SDS011;12457;50.832;4.346;2023-06-10T07:20:34;6.88;;;5.47;;
24337;SDS011;12457;50.832;4.346;2023-06-10T07:22:59;10.82;;;5.00;;
24337;SDS011;12457;50.832;4.346;2023-06-10T07:25:26;8.88;;;5.80;;
24337;SDS011;12457;50.832;4.346;2023-06-10T07:27:52;12.85;;;5.20;;
24337;SDS011;12457;50.832;4.346;2023-06-10T07:30:18;5.55;;;4.70;;
24337;SDS011;12457;50.832;4.346;2023-06-10T07:32:43;8.40;;;5.35;;
24337;SDS011;12457;50.832;4.346;2023-06-10T07:35:09;7.05;;;5.15;;
24337;SDS011;12457;50.832;4.346;2023-06-10T07:37:36;6.85;;;5.07;;
24337;SDS011;12457;50.832;4.346;2023-06-10T07:40:02;7.80;;;4.95;;
24337;SDS011;12457;50.832;4.346;2023-06-10T07:42:28;5.70;;;5.07;;
24337;SDS011;12457;50.832;4.346;2023-06-10T07:44:53;5.35;;;4.72;;
24337;SDS011;12457;50.832;4.346;2023-06-10T07:47:20;6.80;;;4.45;;
24337;SDS011;12457;50.832;4.346;2023-06-10T07:50:06;6.35;;;4.43;;
24337;SDS011;12457;50.832;4.346;2023-06-10T07:52:32;10.18;;;4.68;;
24337;SDS011;12457;50.832;4.346;2023-06-10T07:54:58;12.43;;;4.65;;
24337;SDS011;12457;50.832;4.346;2023-06-10T07:57:23;8.25;;;4.28;;
24337;SDS011;12457;50.832;4.346;2023-06-10T07:59:50;6.68;;;5.20;;
24337;SDS011;12457;50.832;4.346;2023-06-10T08:02:15;6.85;;;5.13;;
24337;SDS011;12457;50.832;4.346;2023-06-10T08:04:41;6.82;;;4.40;;
24337;SDS011;12457;50.832;4.346;2023-06-10T08:07:07;10.63;;;5.10;;
24337;SDS011;12457;50.832;4.346;2023-06-10T08:09:34;6.88;;;4.75;;
24337;SDS011;12457;50.832;4.346;2023-06-10T08:12:00;7.72;;;4.85;;
24337;SDS011;12457;50.832;4.346;2023-06-10T08:14:30;5.10;;;4.60;;
24337;SDS011;12457;50.832;4.346;2023-06-10T08:16:57;8.32;;;5.00;;
24337;SDS011;12457;50.832;4.346;2023-06-10T08:19:25;8.18;;;4.85;;
24337;SDS011;12457;50.832;4.346;2023-06-10T08:21:51;10.18;;;4.85;;
24337;SDS011;12457;50.832;4.346;2023-06-10T08:24:17;6.75;;;4.72;;
24337;SDS011;12457;50.832;4.346;2023-06-10T08:26:43;10.35;;;4.53;;
24337;SDS011;12457;50.832;4.346;2023-06-10T08:29:11;6.45;;;5.00;;
24337;SDS011;12457;50.832;4.346;2023-06-10T08:31:37;6.20;;;4.80;;
24337;SDS011;12457;50.832;4.346;2023-06-10T08:34:09;7.18;;;5.10;;
24337;SDS011;12457;50.832;4.346;2023-06-10T08:36:35;8.50;;;5.15;;
24337;SDS011;12457;50.832;4.346;2023-06-10T08:39:02;10.35;;;5.15;;
24337;SDS011;12457;50.832;4.346;2023-06-10T08:41:28;8.40;;;5.15;;
24337;SDS011;12457;50.832;4.346;2023-06-10T08:44:09;10.48;;;5.53;;
24337;SDS011;12457;50.832;4.346;2023-06-10T08:46:47;7.60;;;5.10;;
24337;SDS011;12457;50.832;4.346;2023-06-10T08:49:17;8.35;;;4.88;;
24337;SDS011;12457;50.832;4.346;2023-06-10T08:51:48;7.15;;;4.85;;
24337;SDS011;12457;50.832;4.346;2023-06-10T08:54:22;9.68;;;5.30;;
24337;SDS011;12457;50.832;4.346;2023-06-10T08:56:53;11.32;;;5.53;;
24337;SDS011;12457;50.832;4.346;2023-06-10T08:59:22;7.55;;;5.10;;
24337;SDS011;12457;50.832;4.346;2023-06-10T09:01:50;7.47;;;4.70;;
24337;SDS011;12457;50.832;4.346;2023-06-10T09:04:19;8.77;;;6.60;;
24337;SDS011;12457;50.832;4.346;2023-06-10T09:06:46;14.55;;;7.47;;
24337;SDS011;12457;50.832;4.346;2023-06-10T09:09:14;12.32;;;8.40;;
24337;SDS011;12457;50.832;4.346;2023-06-10T09:11:42;10.45;;;5.45;;
24337;SDS011;12457;50.832;4.346;2023-06-10T09:14:09;8.77;;;4.85;;
24337;SDS011;12457;50.832;4.346;2023-06-10T09:16:38;6.57;;;4.68;;
24337;SDS011;12457;50.832;4.346;2023-06-10T09:21:53;7.40;;;4.45;;
24337;SDS011;12457;50.832;4.346;2023-06-10T09:24:23;11.00;;;5.03;;
24337;SDS011;12457;50.832;4.346;2023-06-10T09:26:50;8.27;;;5.90;;
24337;SDS011;12457;50.832;4.346;2023-06-10T09:29:30;10.30;;;6.57;;
24337;SDS011;12457;50.832;4.346;2023-06-10T09:31:57;7.32;;;4.70;;
24337;SDS011;12457;50.832;4.346;2023-06-10T09:34:24;7.13;;;5.05;;
24337;SDS011;12457;50.832;4.346;2023-06-10T09:36:53;13.75;;;7.05;;
24337;SDS011;12457;50.832;4.346;2023-06-10T09:39:18;7.63;;;5.97;;
24337;SDS011;12457;50.832;4.346;2023-06-10T09:41:46;10.68;;;7.22;;
24337;SDS011;12457;50.832;4.346;2023-06-10T09:44:15;7.15;;;5.63;;
24337;SDS011;12457;50.832;4.346;2023-06-10T09:46:48;5.20;;;4.50;;
24337;SDS011;12457;50.832;4.346;2023-06-10T09:49:19;6.88;;;4.82;;
24337;SDS011;12457;50.832;4.346;2023-06-10T09:51:53;6.60;;;4.47;;
24337;SDS011;12457;50.832;4.346;2023-06-10T09:54:20;9.55;;;5.05;;
24337;SDS011;12457;50.832;4.346;2023-06-10T09:56:47;4.90;;;4.38;;
24337;SDS011;12457;50.832;4.346;2023-06-10T09:59:14;8.55;;;4.57;;
24337;SDS011;12457;50.832;4.346;2023-06-10T10:01:41;7.70;;;4.38;;
24337;SDS011;12457;50.832;4.346;2023-06-10T10:04:22;10.00;;;5.15;;
24337;SDS011;12457;50.832;4.346;2023-06-10T10:06:49;5.57;;;4.40;;
24337;SDS011;12457;50.832;4.346;2023-06-10T10:09:15;8.32;;;4.50;;
24337;SDS011;12457;50.832;4.346;2023-06-10T10:11:41;5.82;;;4.47;;
24337;SDS011;12457;50.832;4.346;2023-06-10T10:14:08;6.90;;;4.70;;
24337;SDS011;12457;50.832;4.346;2023-06-10T10:16:37;8.80;;;4.35;;
24337;SDS011;12457;50.832;4.346;2023-06-10T10:22:15;8.77;;;3.92;;
24337;SDS011;12457;50.832;4.346;2023-06-10T10:24:52;4.88;;;4.28;;
24337;SDS011;12457;50.832;4.346;2023-06-10T10:30:17;9.43;;;4.82;;
24337;SDS011;12457;50.832;4.346;2023-06-10T10:32:47;6.47;;;3.97;;
24337;SDS011;12457;50.832;4.346;2023-06-10T10:35:26;6.53;;;4.45;;
24337;SDS011;12457;50.832;4.346;2023-06-10T10:37:54;5.20;;;4.03;;
24337;SDS011;12457;50.832;4.346;2023-06-10T10:40:21;8.55;;;4.85;;
24337;SDS011;12457;50.832;4.346;2023-06-10T10:42:48;9.23;;;4.25;;
24337;SDS011;12457;50.832;4.346;2023-06-10T10:45:15;5.22;;;4.43;;
24337;SDS011;12457;50.832;4.346;2023-06-10T10:47:41;6.72;;;4.45;;
24337;SDS011;12457;50.832;4.346;2023-06-10T10:50:14;5.72;;;4.03;;
24337;SDS011;12457;50.832;4.346;2023-06-10T10:52:51;5.85;;;4.00;;
24337;SDS011;12457;50.832;4.346;2023-06-10T10:55:35;10.40;;;4.55;;
24337;SDS011;12457;50.832;4.346;2023-06-10T10:58:06;7.82;;;4.15;;
24337;SDS011;12457;50.832;4.346;2023-06-10T11:00:36;7.55;;;3.95;;
24337;SDS011;12457;50.832;4.346;2023-06-10T11:05:39;7.82;;;3.90;;
24337;SDS011;12457;50.832;4.346;2023-06-10T11:08:07;4.82;;;3.60;;
24337;SDS011;12457;50.832;4.346;2023-06-10T11:10:37;9.88;;;4.72;;
24337;SDS011;12457;50.832;4.346;2023-06-10T11:13:13;7.93;;;4.55;;
24337;SDS011;12457;50.832;4.346;2023-06-10T11:15:45;9.02;;;5.32;;
24337;SDS011;12457;50.832;4.346;2023-06-10T11:20:42;8.05;;;4.55;;
24337;SDS011;12457;50.832;4.346;2023-06-10T11:29:06;8.52;;;4.60;;
24337;SDS011;12457;50.832;4.346;2023-06-10T11:31:38;6.28;;;4.88;;
24337;SDS011;12457;50.832;4.346;2023-06-10T11:34:05;7.85;;;5.30;;
24337;SDS011;12457;50.832;4.346;2023-06-10T11:36:32;5.00;;;3.92;;
24337;SDS011;12457;50.832;4.346;2023-06-10T11:39:03;5.97;;;4.03;;
24337;SDS011;12457;50.832;4.346;2023-06-10T11:41:31;7.28;;;3.97;;
24337;SDS011;12457;50.832;4.346;2023-06-10T11:44:01;6.40;;;4.22;;
24337;SDS011;12457;50.832;4.346;2023-06-10T11:46:33;4.43;;;3.75;;
24337;SDS011;12457;50.832;4.346;2023-06-10T11:49:02;5.35;;;4.63;;
24337;SDS011;12457;50.832;4.346;2023-06-10T11:51:32;7.63;;;4.15;;
24337;SDS011;12457;50.832;4.346;2023-06-10T11:54:00;14.02;;;4.60;;
24337;SDS011;12457;50.832;4.346;2023-06-10T11:56:26;6.85;;;4.38;;
24337;SDS011;12457;50.832;4.346;2023-06-10T11:58:55;8.93;;;4.90;;
24337;SDS011;12457;50.832;4.346;2023-06-10T12:01:26;12.77;;;5.13;;
24337;SDS011;12457;50.832;4.346;2023-06-10T12:04:05;9.57;;;4.30;;
24337;SDS011;12457;50.832;4.346;2023-06-10T12:06:53;7.53;;;4.50;;
24337;SDS011;12457;50.832;4.346;2023-06-10T12:09:25;7.07;;;4.25;;
24337;SDS011;12457;50.832;4.346;2023-06-10T12:11:53;6.32;;;4.47;;
24337;SDS011;12457;50.832;4.346;2023-06-10T12:19:56;11.15;;;7.47;;
24337;SDS011;12457;50.832;4.346;2023-06-10T12:22:24;6.32;;;4.55;;
24337;SDS011;12457;50.832;4.346;2023-06-10T12:25:01;9.82;;;4.95;;
24337;SDS011;12457;50.832;4.346;2023-06-10T12:27:29;5.30;;;4.22;;
24337;SDS011;12457;50.832;4.346;2023-06-10T12:29:56;7.93;;;4.22;;
24337;SDS011;12457;50.832;4.346;2023-06-10T12:32:43;7.13;;;4.30;;
24337;SDS011;12457;50.832;4.346;2023-06-10T12:41:28;6.70;;;4.63;;
24337;SDS011;12457;50.832;4.346;2023-06-10T12:43:54;8.18;;;4.75;;
24337;SDS011;12457;50.832;4.346;2023-06-10T12:46:20;7.38;;;4.53;;
24337;SDS011;12457;50.832;4.346;2023-06-10T12:48:50;5.38;;;4.38;;
24337;SDS011;12457;50.832;4.346;2023-06-10T12:51:22;8.25;;;4.80;;
24337;SDS011;12457;50.832;4.346;2023-06-10T12:53:48;13.68;;;4.90;;
24337;SDS011;12457;50.832;4.346;2023-06-10T12:56:14;8.20;;;5.13;;
24337;SDS011;12457;50.832;4.346;2023-06-10T12:58:40;6.38;;;4.70;;
24337;SDS011;12457;50.832;4.346;2023-06-10T13:01:07;17.33;;;9.32;;
24337;SDS011;12457;50.832;4.346;2023-06-10T13:03:32;6.43;;;4.70;;
24337;SDS011;12457;50.832;4.346;2023-06-10T13:05:58;8.57;;;4.90;;
24337;SDS011;12457;50.832;4.346;2023-06-10T13:08:23;5.38;;;4.30;;
24337;SDS011;12457;50.832;4.346;2023-06-10T13:10:50;8.82;;;4.45;;
24337;SDS011;12457;50.832;4.346;2023-06-10T13:13:16;9.52;;;4.97;;
24337;SDS011;12457;50.832;4.346;2023-06-10T13:15:42;6.97;;;5.20;;
24337;SDS011;12457;50.832;4.346;2023-06-10T13:18:08;6.57;;;4.40;;
24337;SDS011;12457;50.832;4.346;2023-06-10T13:20:35;10.43;;;5.32;;
24337;SDS011;12457;50.832;4.346;2023-06-10T13:23:02;7.47;;;4.45;;
24337;SDS011;12457;50.832;4.346;2023-06-10T13:25:28;7.47;;;4.70;;
24337;SDS011;12457;50.832;4.346;2023-06-10T13:27:54;11.73;;;4.28;;
24337;SDS011;12457;50.832;4.346;2023-06-10T13:30:20;13.05;;;4.72;;
24337;SDS011;12457;50.832;4.346;2023-06-10T13:32:46;7.80;;;4.38;;
24337;SDS011;12457;50.832;4.346;2023-06-10T13:35:21;9.60;;;5.13;;
24337;SDS011;12457;50.832;4.346;2023-06-10T13:37:47;8.82;;;5.20;;
24337;SDS011;12457;50.832;4.346;2023-06-10T13:40:12;7.70;;;4.90;;
24337;SDS011;12457;50.832;4.346;2023-06-10T13:42:38;10.95;;;4.65;;
24337;SDS011;12457;50.832;4.346;2023-06-10T13:45:04;6.40;;;4.20;;
24337;SDS011;12457;50.832;4.346;2023-06-10T13:47:32;5.88;;;4.75;;
24337;SDS011;12457;50.832;4.346;2023-06-10T13:49:58;6.22;;;4.35;;
24337;SDS011;12457;50.832;4.346;2023-06-10T13:52:24;9.32;;;6.32;;
24337;SDS011;12457;50.832;4.346;2023-06-10T13:54:51;9.88;;;4.70;;
24337;SDS011;12457;50.832;4.346;2023-06-10T13:57:22;11.95;;;5.20;;
24337;SDS011;12457;50.832;4.346;2023-06-10T13:59:48;6.82;;;4.68;;
24337;SDS011;12457;50.832;4.346;2023-06-10T14:02:13;10.65;;;4.78;;
24337;SDS011;12457;50.832;4.346;2023-06-10T14:04:39;10.15;;;5.07;;
24337;SDS011;12457;50.832;4.346;2023-06-10T14:07:05;7.13;;;5.15;;
24337;SDS011;12457;50.832;4.346;2023-06-10T14:09:31;17.15;;;11.80;;
24337;SDS011;12457;50.832;4.346;2023-06-10T14:11:57;24.80;;;13.52;;
24337;SDS011;12457;50.832;4.346;2023-06-10T14:14:23;8.38;;;5.32;;
24337;SDS011;12457;50.832;4.346;2023-06-10T14:16:49;15.88;;;7.55;;
24337;SDS011;12457;50.832;4.346;2023-06-10T14:19:16;9.73;;;4.63;;
24337;SDS011;12457;50.832;4.346;2023-06-10T14:24:35;7.50;;;5.07;;
24337;SDS011;12457;50.832;4.346;2023-06-10T14:27:02;7.70;;;4.50;;
24337;SDS011;12457;50.832;4.346;2023-06-10T14:29:28;10.38;;;4.95;;
24337;SDS011;12457;50.832;4.346;2023-06-10T14:31:54;8.43;;;4.57;;
24337;SDS011;12457;50.832;4.346;2023-06-10T14:34:20;7.90;;;4.80;;
24337;SDS011;12457;50.832;4.346;2023-06-10T14:36:48;7.78;;;4.75;;
24337;SDS011;12457;50.832;4.346;2023-06-10T14:39:14;5.75;;;4.47;;
24337;SDS011;12457;50.832;4.346;2023-06-10T14:41:42;8.00;;;4.40;;
24337;SDS011;12457;50.832;4.346;2023-06-10T14:44:08;5.63;;;4.50;;
24337;SDS011;12457;50.832;4.346;2023-06-10T14:46:35;8.40;;;4.63;;
24337;SDS011;12457;50.832;4.346;2023-06-10T14:49:01;7.82;;;4.70;;
24337;SDS011;12457;50.832;4.346;2023-06-10T14:51:27;7.05;;;5.00;;
24337;SDS011;12457;50.832;4.346;2023-06-10T14:53:53;6.70;;;5.28;;
24337;SDS011;12457;50.832;4.346;2023-06-10T14:56:19;10.15;;;5.03;;
24337;SDS011;12457;50.832;4.346;2023-06-10T14:58:45;8.27;;;4.95;;
24337;SDS011;12457;50.832;4.346;2023-06-10T15:01:10;10.07;;;5.03;;
24337;SDS011;12457;50.832;4.346;2023-06-10T15:03:36;5.63;;;4.75;;
24337;SDS011;12457;50.832;4.346;2023-06-10T15:06:02;6.65;;;4.75;;
24337;SDS011;12457;50.832;4.346;2023-06-10T15:08:28;6.78;;;4.85;;
24337;SDS011;12457;50.832;4.346;2023-06-10T15:10:54;10.32;;;5.40;;
24337;SDS011;12457;50.832;4.346;2023-06-10T15:13:22;7.65;;;4.60;;
24337;SDS011;12457;50.832;4.346;2023-06-10T15:15:48;9.23;;;4.60;;
24337;SDS011;12457;50.832;4.346;2023-06-10T15:18:15;7.47;;;4.75;;
24337;SDS011;12457;50.832;4.346;2023-06-10T15:20:41;12.93;;;5.28;;
24337;SDS011;12457;50.832;4.346;2023-06-10T15:23:06;9.05;;;4.85;;
24337;SDS011;12457;50.832;4.346;2023-06-10T15:25:33;7.97;;;4.40;;
24337;SDS011;12457;50.832;4.346;2023-06-10T15:27:59;6.88;;;5.18;;
24337;SDS011;12457;50.832;4.346;2023-06-10T15:30:25;7.28;;;4.88;;
24337;SDS011;12457;50.832;4.346;2023-06-10T15:32:51;6.13;;;4.32;;
24337;SDS011;12457;50.832;4.346;2023-06-10T15:35:18;10.13;;;5.57;;
24337;SDS011;12457;50.832;4.346;2023-06-10T15:37:44;14.38;;;5.55;;